ANTO2: Kiamichi River, Antlers, OKla

                                SHEF ID:       ANTO2     Kiamichi River near Antlers, OK
STATION TYPE:
Regulating: Stage = 22.00, Flow = 20000

PRECIP PRECIP(A) STAGE RIV-FLOW BAT-LOAD
in in ft cfs volt
Ccp-Rev Ccp-Rev Ccp-Rev Ccp-Rev Ccp-Rev
(America/Chicago)
04/25 00:00 0.00 ---- 3.55 373 12.55
04/25 01:00 0.00 ---- 3.54 370 12.53
04/25 02:00 0.00 ---- 3.53 367 12.52
04/25 03:00 0.00 ---- 3.52 364 12.50
04/25 04:00 0.00 ---- 3.52 364 12.48
04/25 05:00 0.00 ---- 3.51 361 12.47
04/25 06:00 0.01 ---- 3.51 361 12.45
04/25 07:00 0.00 ---- 3.50 358 12.44
04/25 08:00 0.00 ---- 3.49 355 12.48
04/25 09:00 0.00 ---- 3.48 352 12.90
04/25 10:00 0.00 ---- 3.47 350 13.29
04/25 11:00 0.00 ---- 3.51 361 13.32
04/25 12:00 0.00 ---- 3.54 370 13.19
04/25 13:00 0.00 ---- 3.62 395 13.05
04/25 14:00 0.00 ---- 3.83 463 12.99
04/25 15:00 0.00 ---- 4.20 591 12.96
04/25 16:00 0.00 ---- 4.61 753 12.95
04/25 17:00 0.00 ---- 4.96 901 12.95
04/25 18:00 0.00 ---- 5.23 1030 12.94
04/25 19:00 0.00 ---- 5.43 1130 12.94
04/25 20:00 0.00 ---- 5.57 1200 12.79
04/25 21:00 0.00 ---- 5.68 1260 12.67
04/25 22:00 0.00 ---- 5.74 1300 12.63
04/25 23:00 ---- ---- ---- ---- ----
Data processed at Sun 26Apr2026 04:32 GMT

NOTICE: If you are parsing this page

Please convert to using our Data API. Starting early 2026 we will be migrating to: https://water.usace.army.mil with modern pages rendered in JavaScript. When this migration completes you will no longer be able to scrape this page! CWMSDataAPI (CDA)

Timeseries IDs (TSIDs)

TSIDs used from left to right in the data table
ANTL.Precip-Inc.Total.1Hour.1Hour.Ccp-Rev
ANTL.Precip-Inc Alt.Total.1Hour.1Hour.Ccp-Rev
ANTL.Stage.Inst.1Hour.0.Ccp-Rev
ANTL.Flow.Inst.1Hour.0.Ccp-Rev
ANTL.Volt-Battery Load.Inst.1Hour.0.Ccp-Rev

                            

All information presented herein is the property of the government of the United States of America and may be revised or deleted at any time without prior notice. Dissemination of this information without the expressed written consent of the Public Affairs Office, Tulsa District U.S. Army Corps of Engineers is strictly prohibited. These data are gathered electronically and, as presented, have NOT undergone any form of quality control. These data are NOT guaranteed to be valid or correct.